sensor_id;sensor_type;location;lat;lon;timestamp;P1;durP1;ratioP1;P2;durP2;ratioP2
39300;SDS011;25019;42.626;23.380;2022-07-29T05:05:44;6.63;;;4.70;;
39300;SDS011;25019;42.626;23.380;2022-07-29T05:08:10;5.67;;;4.60;;
39300;SDS011;25019;42.626;23.380;2022-07-29T05:10:35;5.47;;;4.83;;
39300;SDS011;25019;42.626;23.380;2022-07-29T05:13:06;6.17;;;4.70;;
39300;SDS011;25019;42.626;23.380;2022-07-29T05:15:35;5.27;;;4.63;;
39300;SDS011;25019;42.626;23.380;2022-07-29T05:18:01;6.37;;;5.20;;
39300;SDS011;25019;42.626;23.380;2022-07-29T05:20:27;6.00;;;5.40;;
39300;SDS011;25019;42.626;23.380;2022-07-29T05:22:57;5.60;;;5.03;;
39300;SDS011;25019;42.626;23.380;2022-07-29T05:25:24;5.70;;;4.77;;
39300;SDS011;25019;42.626;23.380;2022-07-29T05:27:51;6.57;;;5.60;;
39300;SDS011;25019;42.626;23.380;2022-07-29T05:32:52;6.10;;;5.50;;
39300;SDS011;25019;42.626;23.380;2022-07-29T05:35:17;5.13;;;4.73;;
39300;SDS011;25019;42.626;23.380;2022-07-29T05:37:43;5.70;;;5.20;;
39300;SDS011;25019;42.626;23.380;2022-07-29T05:40:09;5.90;;;5.30;;
39300;SDS011;25019;42.626;23.380;2022-07-29T05:42:35;6.20;;;5.27;;
39300;SDS011;25019;42.626;23.380;2022-07-29T05:45:01;6.17;;;5.23;;
39300;SDS011;25019;42.626;23.380;2022-07-29T05:47:28;6.20;;;5.60;;
39300;SDS011;25019;42.626;23.380;2022-07-29T05:49:54;6.83;;;5.17;;
39300;SDS011;25019;42.626;23.380;2022-07-29T05:52:19;6.30;;;5.23;;
39300;SDS011;25019;42.626;23.380;2022-07-29T05:54:46;13.73;;;6.80;;
39300;SDS011;25019;42.626;23.380;2022-07-29T05:57:15;10.23;;;6.83;;
39300;SDS011;25019;42.626;23.380;2022-07-29T05:59:45;9.03;;;5.90;;
39300;SDS011;25019;42.626;23.380;2022-07-29T06:02:11;9.37;;;6.90;;
39300;SDS011;25019;42.626;23.380;2022-07-29T06:04:37;6.37;;;5.70;;
39300;SDS011;25019;42.626;23.380;2022-07-29T06:07:03;6.90;;;5.90;;
39300;SDS011;25019;42.626;23.380;2022-07-29T06:09:28;5.77;;;5.20;;
39300;SDS011;25019;42.626;23.380;2022-07-29T06:11:54;8.33;;;5.67;;
39300;SDS011;25019;42.626;23.380;2022-07-29T06:14:20;7.60;;;5.77;;
39300;SDS011;25019;42.626;23.380;2022-07-29T06:16:45;7.80;;;5.43;;
39300;SDS011;25019;42.626;23.380;2022-07-29T06:19:11;5.70;;;5.10;;
39300;SDS011;25019;42.626;23.380;2022-07-29T06:21:41;5.40;;;4.90;;
39300;SDS011;25019;42.626;23.380;2022-07-29T06:24:07;7.47;;;4.70;;
39300;SDS011;25019;42.626;23.380;2022-07-29T06:26:33;8.80;;;5.20;;
39300;SDS011;25019;42.626;23.380;2022-07-29T06:28:59;6.47;;;5.57;;
39300;SDS011;25019;42.626;23.380;2022-07-29T06:31:24;7.77;;;5.67;;
39300;SDS011;25019;42.626;23.380;2022-07-29T06:33:50;7.50;;;6.40;;
39300;SDS011;25019;42.626;23.380;2022-07-29T06:36:15;11.47;;;6.43;;
39300;SDS011;25019;42.626;23.380;2022-07-29T06:38:42;7.23;;;6.53;;
39300;SDS011;25019;42.626;23.380;2022-07-29T06:41:07;8.20;;;6.40;;
39300;SDS011;25019;42.626;23.380;2022-07-29T06:43:40;9.80;;;7.10;;
39300;SDS011;25019;42.626;23.380;2022-07-29T06:46:07;8.33;;;7.10;;
39300;SDS011;25019;42.626;23.380;2022-07-29T06:48:34;9.83;;;6.30;;
39300;SDS011;25019;42.626;23.380;2022-07-29T06:51:03;7.93;;;6.23;;
39300;SDS011;25019;42.626;23.380;2022-07-29T06:53:30;7.37;;;6.60;;
39300;SDS011;25019;42.626;23.380;2022-07-29T06:55:56;6.40;;;5.80;;
39300;SDS011;25019;42.626;23.380;2022-07-29T06:58:24;7.23;;;6.53;;
39300;SDS011;25019;42.626;23.380;2022-07-29T07:00:57;9.10;;;6.40;;
39300;SDS011;25019;42.626;23.380;2022-07-29T07:03:23;6.73;;;5.73;;
39300;SDS011;25019;42.626;23.380;2022-07-29T07:05:49;7.83;;;5.93;;
39300;SDS011;25019;42.626;23.380;2022-07-29T07:08:17;7.00;;;6.13;;
39300;SDS011;25019;42.626;23.380;2022-07-29T07:10:46;8.33;;;5.60;;
39300;SDS011;25019;42.626;23.380;2022-07-29T07:13:13;6.07;;;5.33;;
39300;SDS011;25019;42.626;23.380;2022-07-29T07:15:39;5.40;;;4.90;;
39300;SDS011;25019;42.626;23.380;2022-07-29T07:18:06;7.13;;;5.00;;
39300;SDS011;25019;42.626;23.380;2022-07-29T07:20:35;6.17;;;5.13;;
39300;SDS011;25019;42.626;23.380;2022-07-29T07:23:01;5.77;;;5.23;;
39300;SDS011;25019;42.626;23.380;2022-07-29T07:25:27;5.20;;;4.70;;
39300;SDS011;25019;42.626;23.380;2022-07-29T07:27:56;6.40;;;5.20;;
39300;SDS011;25019;42.626;23.380;2022-07-29T07:30:21;6.00;;;5.10;;
39300;SDS011;25019;42.626;23.380;2022-07-29T07:32:47;6.17;;;4.97;;
39300;SDS011;25019;42.626;23.380;2022-07-29T07:35:13;5.37;;;4.60;;
39300;SDS011;25019;42.626;23.380;2022-07-29T07:37:39;5.60;;;4.60;;
39300;SDS011;25019;42.626;23.380;2022-07-29T07:40:06;7.43;;;4.80;;
39300;SDS011;25019;42.626;23.380;2022-07-29T07:42:33;7.10;;;4.30;;
39300;SDS011;25019;42.626;23.380;2022-07-29T07:45:00;4.30;;;3.90;;
39300;SDS011;25019;42.626;23.380;2022-07-29T07:47:25;6.77;;;4.03;;
39300;SDS011;25019;42.626;23.380;2022-07-29T07:49:51;4.17;;;3.70;;
39300;SDS011;25019;42.626;23.380;2022-07-29T07:52:18;4.50;;;3.83;;
39300;SDS011;25019;42.626;23.380;2022-07-29T07:54:45;4.20;;;3.80;;
39300;SDS011;25019;42.626;23.380;2022-07-29T07:57:11;6.47;;;3.90;;
39300;SDS011;25019;42.626;23.380;2022-07-29T07:59:37;6.80;;;3.93;;
39300;SDS011;25019;42.626;23.380;2022-07-29T08:02:03;4.07;;;3.60;;
39300;SDS011;25019;42.626;23.380;2022-07-29T08:04:29;4.80;;;4.07;;
39300;SDS011;25019;42.626;23.380;2022-07-29T08:06:55;4.27;;;3.87;;
39300;SDS011;25019;42.626;23.380;2022-07-29T08:09:22;3.77;;;3.43;;
39300;SDS011;25019;42.626;23.380;2022-07-29T08:11:48;5.13;;;3.70;;
39300;SDS011;25019;42.626;23.380;2022-07-29T08:14:14;5.80;;;3.40;;
39300;SDS011;25019;42.626;23.380;2022-07-29T08:16:40;4.20;;;3.80;;
39300;SDS011;25019;42.626;23.380;2022-07-29T08:19:07;4.03;;;3.73;;
39300;SDS011;25019;42.626;23.380;2022-07-29T08:21:33;4.43;;;3.50;;
39300;SDS011;25019;42.626;23.380;2022-07-29T08:23:59;4.67;;;3.67;;
39300;SDS011;25019;42.626;23.380;2022-07-29T08:26:43;5.70;;;3.60;;
39300;SDS011;25019;42.626;23.380;2022-07-29T08:29:09;4.43;;;3.43;;
39300;SDS011;25019;42.626;23.380;2022-07-29T08:31:36;5.60;;;3.57;;
39300;SDS011;25019;42.626;23.380;2022-07-29T08:34:02;3.80;;;3.50;;
39300;SDS011;25019;42.626;23.380;2022-07-29T08:36:29;3.40;;;3.10;;
39300;SDS011;25019;42.626;23.380;2022-07-29T08:38:55;3.93;;;3.57;;
39300;SDS011;25019;42.626;23.380;2022-07-29T08:41:21;4.20;;;3.80;;
39300;SDS011;25019;42.626;23.380;2022-07-29T08:43:47;4.03;;;3.60;;
39300;SDS011;25019;42.626;23.380;2022-07-29T08:46:14;4.70;;;3.60;;
39300;SDS011;25019;42.626;23.380;2022-07-29T08:48:40;3.53;;;3.23;;
39300;SDS011;25019;42.626;23.380;2022-07-29T08:51:06;5.37;;;3.60;;
39300;SDS011;25019;42.626;23.380;2022-07-29T08:53:33;4.03;;;2.83;;
39300;SDS011;25019;42.626;23.380;2022-07-29T08:55:59;3.10;;;2.80;;
39300;SDS011;25019;42.626;23.380;2022-07-29T08:58:26;2.80;;;2.60;;
39300;SDS011;25019;42.626;23.380;2022-07-29T09:00:56;4.43;;;3.20;;
39300;SDS011;25019;42.626;23.380;2022-07-29T09:03:23;4.50;;;4.10;;
39300;SDS011;25019;42.626;23.380;2022-07-29T09:05:50;5.70;;;4.10;;
39300;SDS011;25019;42.626;23.380;2022-07-29T09:08:17;7.07;;;4.27;;
39300;SDS011;25019;42.626;23.380;2022-07-29T09:10:43;4.10;;;3.70;;
39300;SDS011;25019;42.626;23.380;2022-07-29T09:13:09;4.57;;;4.10;;
39300;SDS011;25019;42.626;23.380;2022-07-29T09:15:35;4.63;;;3.90;;
39300;SDS011;25019;42.626;23.380;2022-07-29T09:18:01;4.47;;;4.17;;
39300;SDS011;25019;42.626;23.380;2022-07-29T09:20:27;4.43;;;4.03;;
39300;SDS011;25019;42.626;23.380;2022-07-29T09:23:13;5.53;;;4.20;;
39300;SDS011;25019;42.626;23.380;2022-07-29T09:25:39;5.33;;;3.90;;
39300;SDS011;25019;42.626;23.380;2022-07-29T09:28:09;4.17;;;3.83;;
39300;SDS011;25019;42.626;23.380;2022-07-29T09:30:53;5.03;;;4.20;;
39300;SDS011;25019;42.626;23.380;2022-07-29T09:33:23;5.50;;;5.00;;
39300;SDS011;25019;42.626;23.380;2022-07-29T09:36:03;6.33;;;4.50;;
39300;SDS011;25019;42.626;23.380;2022-07-29T09:38:30;4.37;;;3.97;;
39300;SDS011;25019;42.626;23.380;2022-07-29T09:40:57;6.90;;;4.00;;
39300;SDS011;25019;42.626;23.380;2022-07-29T09:43:24;4.93;;;4.10;;
39300;SDS011;25019;42.626;23.380;2022-07-29T09:45:50;4.70;;;4.30;;
39300;SDS011;25019;42.626;23.380;2022-07-29T09:48:16;6.07;;;3.97;;
39300;SDS011;25019;42.626;23.380;2022-07-29T09:50:46;4.27;;;3.97;;
39300;SDS011;25019;42.626;23.380;2022-07-29T09:55:59;4.80;;;4.27;;
39300;SDS011;25019;42.626;23.380;2022-07-29T09:58:25;6.10;;;4.50;;
39300;SDS011;25019;42.626;23.380;2022-07-29T10:00:52;4.97;;;4.47;;
39300;SDS011;25019;42.626;23.380;2022-07-29T10:03:19;7.97;;;4.40;;
39300;SDS011;25019;42.626;23.380;2022-07-29T10:05:46;5.03;;;4.53;;
39300;SDS011;25019;42.626;23.380;2022-07-29T10:08:38;5.27;;;4.77;;
39300;SDS011;25019;42.626;23.380;2022-07-29T10:11:10;5.57;;;3.87;;
39300;SDS011;25019;42.626;23.380;2022-07-29T10:13:41;5.30;;;4.50;;
39300;SDS011;25019;42.626;23.380;2022-07-29T10:16:09;5.63;;;4.33;;
39300;SDS011;25019;42.626;23.380;2022-07-29T10:18:35;7.93;;;4.67;;
39300;SDS011;25019;42.626;23.380;2022-07-29T10:21:04;4.50;;;4.10;;
39300;SDS011;25019;42.626;23.380;2022-07-29T10:23:29;4.70;;;4.30;;
39300;SDS011;25019;42.626;23.380;2022-07-29T10:25:56;5.20;;;4.10;;
39300;SDS011;25019;42.626;23.380;2022-07-29T10:28:22;5.40;;;4.90;;
39300;SDS011;25019;42.626;23.380;2022-07-29T10:30:52;4.33;;;3.70;;
39300;SDS011;25019;42.626;23.380;2022-07-29T10:38:47;4.20;;;3.70;;
39300;SDS011;25019;42.626;23.380;2022-07-29T10:44:05;4.60;;;3.70;;
39300;SDS011;25019;42.626;23.380;2022-07-29T10:46:35;4.67;;;4.23;;
39300;SDS011;25019;42.626;23.380;2022-07-29T10:49:12;4.10;;;3.73;;
39300;SDS011;25019;42.626;23.380;2022-07-29T10:54:15;3.90;;;3.60;;
39300;SDS011;25019;42.626;23.380;2022-07-29T10:56:44;4.90;;;4.20;;
39300;SDS011;25019;42.626;23.380;2022-07-29T11:01:45;4.20;;;3.73;;
39300;SDS011;25019;42.626;23.380;2022-07-29T11:04:12;4.87;;;4.10;;
39300;SDS011;25019;42.626;23.380;2022-07-29T11:09:28;5.33;;;4.13;;
39300;SDS011;25019;42.626;23.380;2022-07-29T11:11:57;4.50;;;4.10;;
39300;SDS011;25019;42.626;23.380;2022-07-29T11:17:20;4.10;;;3.70;;
39300;SDS011;25019;42.626;23.380;2022-07-29T11:19:47;4.30;;;3.90;;
39300;SDS011;25019;42.626;23.380;2022-07-29T11:22:30;4.23;;;3.83;;
39300;SDS011;25019;42.626;23.380;2022-07-29T11:25:16;5.10;;;4.13;;
39300;SDS011;25019;42.626;23.380;2022-07-29T11:27:46;3.83;;;3.53;;
39300;SDS011;25019;42.626;23.380;2022-07-29T11:30:11;4.73;;;4.20;;
39300;SDS011;25019;42.626;23.380;2022-07-29T11:32:39;4.47;;;4.07;;
39300;SDS011;25019;42.626;23.380;2022-07-29T11:37:38;5.30;;;4.27;;
39300;SDS011;25019;42.626;23.380;2022-07-29T11:45:02;6.23;;;3.63;;
39300;SDS011;25019;42.626;23.380;2022-07-29T11:47:33;3.70;;;3.40;;
39300;SDS011;25019;42.626;23.380;2022-07-29T11:50:02;4.17;;;3.83;;
39300;SDS011;25019;42.626;23.380;2022-07-29T11:52:33;6.40;;;3.77;;
39300;SDS011;25019;42.626;23.380;2022-07-29T11:55:05;3.70;;;3.40;;
39300;SDS011;25019;42.626;23.380;2022-07-29T11:57:31;5.03;;;3.70;;
39300;SDS011;25019;42.626;23.380;2022-07-29T12:00:00;4.37;;;3.97;;
39300;SDS011;25019;42.626;23.380;2022-07-29T12:02:25;4.20;;;3.90;;
39300;SDS011;25019;42.626;23.380;2022-07-29T12:05:03;4.20;;;3.53;;
39300;SDS011;25019;42.626;23.380;2022-07-29T12:07:32;5.20;;;4.03;;
39300;SDS011;25019;42.626;23.380;2022-07-29T12:09:59;4.80;;;4.30;;
39300;SDS011;25019;42.626;23.380;2022-07-29T12:12:26;5.97;;;4.20;;
39300;SDS011;25019;42.626;23.380;2022-07-29T12:14:52;5.87;;;4.13;;
39300;SDS011;25019;42.626;23.380;2022-07-29T12:17:26;4.87;;;4.47;;
39300;SDS011;25019;42.626;23.380;2022-07-29T12:19:52;4.93;;;4.47;;
39300;SDS011;25019;42.626;23.380;2022-07-29T12:22:31;5.90;;;4.30;;
39300;SDS011;25019;42.626;23.380;2022-07-29T12:25:06;4.43;;;4.03;;
39300;SDS011;25019;42.626;23.380;2022-07-29T12:27:34;4.77;;;3.93;;
39300;SDS011;25019;42.626;23.380;2022-07-29T12:30:05;5.73;;;4.50;;
39300;SDS011;25019;42.626;23.380;2022-07-29T12:32:36;4.97;;;4.47;;
39300;SDS011;25019;42.626;23.380;2022-07-29T12:35:04;5.40;;;4.30;;
39300;SDS011;25019;42.626;23.380;2022-07-29T12:37:35;4.63;;;4.23;;
39300;SDS011;25019;42.626;23.380;2022-07-29T12:40:03;6.27;;;4.77;;
39300;SDS011;25019;42.626;23.380;2022-07-29T12:42:30;5.03;;;4.50;;
39300;SDS011;25019;42.626;23.380;2022-07-29T12:44:57;5.17;;;4.67;;
39300;SDS011;25019;42.626;23.380;2022-07-29T12:47:23;5.10;;;4.60;;
39300;SDS011;25019;42.626;23.380;2022-07-29T12:49:49;5.30;;;4.67;;
39300;SDS011;25019;42.626;23.380;2022-07-29T12:52:26;5.50;;;5.00;;
39300;SDS011;25019;42.626;23.380;2022-07-29T12:54:53;5.00;;;4.53;;
39300;SDS011;25019;42.626;23.380;2022-07-29T12:57:19;5.63;;;5.20;;
39300;SDS011;25019;42.626;23.380;2022-07-29T12:59:44;5.50;;;5.00;;
39300;SDS011;25019;42.626;23.380;2022-07-29T13:02:22;5.10;;;4.43;;
39300;SDS011;25019;42.626;23.380;2022-07-29T13:04:57;4.90;;;4.57;;
39300;SDS011;25019;42.626;23.380;2022-07-29T13:07:28;6.97;;;4.50;;
39300;SDS011;25019;42.626;23.380;2022-07-29T13:15:35;5.50;;;4.60;;
39300;SDS011;25019;42.626;23.380;2022-07-29T13:18:05;5.20;;;4.70;;
39300;SDS011;25019;42.626;23.380;2022-07-29T13:20:50;4.93;;;4.43;;
39300;SDS011;25019;42.626;23.380;2022-07-29T13:23:16;5.50;;;5.00;;
39300;SDS011;25019;42.626;23.380;2022-07-29T13:25:42;4.77;;;4.37;;
39300;SDS011;25019;42.626;23.380;2022-07-29T13:28:07;4.73;;;4.33;;
39300;SDS011;25019;42.626;23.380;2022-07-29T13:30:33;4.70;;;4.30;;
39300;SDS011;25019;42.626;23.380;2022-07-29T13:32:58;5.97;;;4.30;;
39300;SDS011;25019;42.626;23.380;2022-07-29T13:35:24;4.50;;;4.20;;
39300;SDS011;25019;42.626;23.380;2022-07-29T13:37:49;4.53;;;4.13;;
39300;SDS011;25019;42.626;23.380;2022-07-29T13:40:15;4.70;;;4.30;;
39300;SDS011;25019;42.626;23.380;2022-07-29T13:42:41;5.90;;;4.63;;
39300;SDS011;25019;42.626;23.380;2022-07-29T13:45:07;5.40;;;4.90;;
39300;SDS011;25019;42.626;23.380;2022-07-29T13:47:34;5.47;;;4.57;;
39300;SDS011;25019;42.626;23.380;2022-07-29T13:50:00;6.73;;;4.80;;
39300;SDS011;25019;42.626;23.380;2022-07-29T13:52:26;5.27;;;3.63;;
39300;SDS011;25019;42.626;23.380;2022-07-29T13:54:52;4.63;;;4.23;;
39300;SDS011;25019;42.626;23.380;2022-07-29T13:57:18;4.13;;;3.50;;
39300;SDS011;25019;42.626;23.380;2022-07-29T13:59:44;4.73;;;4.33;;
39300;SDS011;25019;42.626;23.380;2022-07-29T14:02:10;5.33;;;4.03;;
39300;SDS011;25019;42.626;23.380;2022-07-29T14:04:36;7.17;;;4.33;;
39300;SDS011;25019;42.626;23.380;2022-07-29T14:07:01;5.00;;;4.07;;
39300;SDS011;25019;42.626;23.380;2022-07-29T14:09:27;5.77;;;3.97;;
39300;SDS011;25019;42.626;23.380;2022-07-29T14:11:53;4.83;;;3.80;;
39300;SDS011;25019;42.626;23.380;2022-07-29T14:14:19;4.27;;;3.83;;
39300;SDS011;25019;42.626;23.380;2022-07-29T14:16:45;4.47;;;4.07;;
39300;SDS011;25019;42.626;23.380;2022-07-29T14:19:11;4.73;;;4.33;;
39300;SDS011;25019;42.626;23.380;2022-07-29T14:21:37;6.80;;;4.00;;
39300;SDS011;25019;42.626;23.380;2022-07-29T14:24:03;5.37;;;4.47;;
39300;SDS011;25019;42.626;23.380;2022-07-29T14:26:29;4.87;;;4.37;;
39300;SDS011;25019;42.626;23.380;2022-07-29T14:28:55;5.03;;;4.53;;
39300;SDS011;25019;42.626;23.380;2022-07-29T14:31:21;5.10;;;4.27;;
39300;SDS011;25019;42.626;23.380;2022-07-29T14:33:46;5.10;;;4.70;;
39300;SDS011;25019;42.626;23.380;2022-07-29T14:36:12;5.27;;;4.47;;
39300;SDS011;25019;42.626;23.380;2022-07-29T14:38:38;6.63;;;4.50;;
39300;SDS011;25019;42.626;23.380;2022-07-29T14:41:03;5.10;;;4.27;;
39300;SDS011;25019;42.626;23.380;2022-07-29T14:43:29;6.43;;;4.70;;
39300;SDS011;25019;42.626;23.380;2022-07-29T14:45:55;5.20;;;4.70;;
39300;SDS011;25019;42.626;23.380;2022-07-29T14:48:21;4.80;;;4.33;;
39300;SDS011;25019;42.626;23.380;2022-07-29T14:50:47;5.07;;;4.57;;
39300;SDS011;25019;42.626;23.380;2022-07-29T14:53:12;6.77;;;6.00;;
39300;SDS011;25019;42.626;23.380;2022-07-29T14:55:38;7.87;;;4.70;;
39300;SDS011;25019;42.626;23.380;2022-07-29T14:58:04;5.17;;;4.67;;
39300;SDS011;25019;42.626;23.380;2022-07-29T15:00:30;5.17;;;4.67;;
39300;SDS011;25019;42.626;23.380;2022-07-29T15:02:57;5.10;;;4.60;;
39300;SDS011;25019;42.626;23.380;2022-07-29T15:05:24;5.20;;;4.70;;
39300;SDS011;25019;42.626;23.380;2022-07-29T15:07:50;6.03;;;4.60;;
39300;SDS011;25019;42.626;23.380;2022-07-29T15:10:16;5.00;;;4.60;;
39300;SDS011;25019;42.626;23.380;2022-07-29T15:12:41;5.27;;;4.77;;
39300;SDS011;25019;42.626;23.380;2022-07-29T15:15:07;4.10;;;3.80;;
39300;SDS011;25019;42.626;23.380;2022-07-29T15:17:33;4.63;;;4.23;;
39300;SDS011;25019;42.626;23.380;2022-07-29T15:19:59;4.77;;;4.37;;
39300;SDS011;25019;42.626;23.380;2022-07-29T15:22:25;4.73;;;4.33;;
39300;SDS011;25019;42.626;23.380;2022-07-29T15:24:51;6.07;;;4.10;;
39300;SDS011;25019;42.626;23.380;2022-07-29T15:27:17;4.33;;;3.93;;
39300;SDS011;25019;42.626;23.380;2022-07-29T15:29:43;4.60;;;4.20;;
39300;SDS011;25019;42.626;23.380;2022-07-29T15:32:08;4.00;;;3.60;;
39300;SDS011;25019;42.626;23.380;2022-07-29T15:34:35;4.40;;;4.10;;
39300;SDS011;25019;42.626;23.380;2022-07-29T15:37:01;3.87;;;3.57;;
39300;SDS011;25019;42.626;23.380;2022-07-29T15:39:27;4.10;;;3.67;;
39300;SDS011;25019;42.626;23.380;2022-07-29T15:41:52;4.03;;;3.63;;
39300;SDS011;25019;42.626;23.380;2022-07-29T15:44:18;3.93;;;3.63;;
39300;SDS011;25019;42.626;23.380;2022-07-29T15:46:44;4.43;;;4.03;;
39300;SDS011;25019;42.626;23.380;2022-07-29T15:49:32;5.40;;;4.20;;
39300;SDS011;25019;42.626;23.380;2022-07-29T15:51:59;4.10;;;3.80;;
39300;SDS011;25019;42.626;23.380;2022-07-29T15:54:26;4.43;;;3.63;;
39300;SDS011;25019;42.626;23.380;2022-07-29T15:56:52;3.70;;;3.40;;
39300;SDS011;25019;42.626;23.380;2022-07-29T15:59:19;5.10;;;3.70;;
39300;SDS011;25019;42.626;23.380;2022-07-29T16:01:45;5.53;;;3.90;;
39300;SDS011;25019;42.626;23.380;2022-07-29T16:04:10;4.33;;;3.93;;
39300;SDS011;25019;42.626;23.380;2022-07-29T16:06:36;7.23;;;4.80;;
39300;SDS011;25019;42.626;23.380;2022-07-29T16:09:04;7.97;;;4.40;;
39300;SDS011;25019;42.626;23.380;2022-07-29T16:11:30;5.17;;;4.63;;
39300;SDS011;25019;42.626;23.380;2022-07-29T16:13:55;6.43;;;4.73;;
39300;SDS011;25019;42.626;23.380;2022-07-29T16:16:21;4.70;;;4.23;;
39300;SDS011;25019;42.626;23.380;2022-07-29T16:18:46;8.93;;;4.50;;
39300;SDS011;25019;42.626;23.380;2022-07-29T16:21:12;6.37;;;4.90;;
39300;SDS011;25019;42.626;23.380;2022-07-29T16:23:38;7.50;;;4.50;;
39300;SDS011;25019;42.626;23.380;2022-07-29T16:26:04;6.50;;;4.80;;
39300;SDS011;25019;42.626;23.380;2022-07-29T16:28:30;4.97;;;4.47;;
39300;SDS011;25019;42.626;23.380;2022-07-29T16:30:55;5.07;;;4.20;;
39300;SDS011;25019;42.626;23.380;2022-07-29T16:33:21;5.17;;;4.20;;
39300;SDS011;25019;42.626;23.380;2022-07-29T16:35:50;5.63;;;4.37;;
39300;SDS011;25019;42.626;23.380;2022-07-29T16:38:16;5.87;;;4.50;;
39300;SDS011;25019;42.626;23.380;2022-07-29T16:40:43;7.07;;;4.30;;
39300;SDS011;25019;42.626;23.380;2022-07-29T16:43:09;7.60;;;4.87;;
39300;SDS011;25019;42.626;23.380;2022-07-29T16:45:35;6.70;;;4.77;;
39300;SDS011;25019;42.626;23.380;2022-07-29T16:48:01;7.13;;;5.07;;
39300;SDS011;25019;42.626;23.380;2022-07-29T16:50:28;6.23;;;4.70;;
39300;SDS011;25019;42.626;23.380;2022-07-29T16:52:54;5.27;;;4.77;;
39300;SDS011;25019;42.626;23.380;2022-07-29T16:55:20;5.33;;;4.83;;
39300;SDS011;25019;42.626;23.380;2022-07-29T16:57:46;6.97;;;4.40;;
39300;SDS011;25019;42.626;23.380;2022-07-29T17:00:12;6.03;;;4.40;;
39300;SDS011;25019;42.626;23.380;2022-07-29T17:02:39;4.40;;;4.00;;
39300;SDS011;25019;42.626;23.380;2022-07-29T17:05:06;4.73;;;4.17;;
39300;SDS011;25019;42.626;23.380;2022-07-29T17:07:32;4.93;;;4.30;;
39300;SDS011;25019;42.626;23.380;2022-07-29T17:09:58;5.00;;;3.67;;
39300;SDS011;25019;42.626;23.380;2022-07-29T17:12:23;4.13;;;3.73;;
39300;SDS011;25019;42.626;23.380;2022-07-29T17:32:48;6.03;;;5.03;;
39300;SDS011;25019;42.626;23.380;2022-07-29T17:35:14;5.07;;;4.67;;
39300;SDS011;25019;42.626;23.380;2022-07-29T17:37:58;6.23;;;4.70;;
39300;SDS011;25019;42.626;23.380;2022-07-29T17:40:24;6.37;;;4.60;;
39300;SDS011;25019;42.626;23.380;2022-07-29T17:42:50;5.27;;;4.87;;
39300;SDS011;25019;42.626;23.380;2022-07-29T17:45:15;5.27;;;4.77;;
39300;SDS011;25019;42.626;23.380;2022-07-29T17:47:41;5.07;;;4.60;;
39300;SDS011;25019;42.626;23.380;2022-07-29T17:50:06;4.80;;;4.40;;
39300;SDS011;25019;42.626;23.380;2022-07-29T17:52:32;6.43;;;5.03;;
39300;SDS011;25019;42.626;23.380;2022-07-29T17:54:58;4.77;;;4.37;;
39300;SDS011;25019;42.626;23.380;2022-07-29T17:57:23;6.20;;;4.43;;
39300;SDS011;25019;42.626;23.380;2022-07-29T17:59:49;4.90;;;4.50;;
39300;SDS011;25019;42.626;23.380;2022-07-29T18:02:15;5.17;;;4.37;;
39300;SDS011;25019;42.626;23.380;2022-07-29T18:04:42;4.73;;;3.93;;
39300;SDS011;25019;42.626;23.380;2022-07-29T18:07:07;6.00;;;4.20;;
39300;SDS011;25019;42.626;23.380;2022-07-29T18:09:33;8.77;;;4.70;;
39300;SDS011;25019;42.626;23.380;2022-07-29T18:11:58;5.87;;;4.90;;
39300;SDS011;25019;42.626;23.380;2022-07-29T18:14:24;5.23;;;3.97;;
39300;SDS011;25019;42.626;23.380;2022-07-29T18:16:49;4.53;;;4.10;;
39300;SDS011;25019;42.626;23.380;2022-07-29T18:19:15;4.67;;;4.20;;
39300;SDS011;25019;42.626;23.380;2022-07-29T18:21:40;7.03;;;4.10;;
39300;SDS011;25019;42.626;23.380;2022-07-29T18:24:06;6.00;;;4.33;;
39300;SDS011;25019;42.626;23.380;2022-07-29T18:26:32;6.23;;;4.27;;
39300;SDS011;25019;42.626;23.380;2022-07-29T18:28:58;4.50;;;4.10;;
39300;SDS011;25019;42.626;23.380;2022-07-29T18:31:23;4.47;;;4.07;;
39300;SDS011;25019;42.626;23.380;2022-07-29T18:33:49;4.30;;;3.90;;
39300;SDS011;25019;42.626;23.380;2022-07-29T18:36:14;4.73;;;4.27;;
39300;SDS011;25019;42.626;23.380;2022-07-29T18:38:40;4.50;;;3.83;;
39300;SDS011;25019;42.626;23.380;2022-07-29T18:41:05;5.50;;;4.10;;
39300;SDS011;25019;42.626;23.380;2022-07-29T18:43:31;12.00;;;5.40;;
39300;SDS011;25019;42.626;23.380;2022-07-29T18:45:57;8.23;;;5.00;;
39300;SDS011;25019;42.626;23.380;2022-07-29T18:48:22;11.03;;;5.53;;
39300;SDS011;25019;42.626;23.380;2022-07-29T18:50:48;8.37;;;5.80;;
39300;SDS011;25019;42.626;23.380;2022-07-29T18:53:14;9.47;;;5.00;;
39300;SDS011;25019;42.626;23.380;2022-07-29T18:55:40;4.80;;;4.40;;
39300;SDS011;25019;42.626;23.380;2022-07-29T18:58:05;5.10;;;4.00;;
39300;SDS011;25019;42.626;23.380;2022-07-29T19:00:31;4.90;;;4.40;;
39300;SDS011;25019;42.626;23.380;2022-07-29T19:02:56;4.30;;;3.90;;
39300;SDS011;25019;42.626;23.380;2022-07-29T19:05:22;4.90;;;4.30;;
39300;SDS011;25019;42.626;23.380;2022-07-29T19:07:48;5.57;;;4.57;;
39300;SDS011;25019;42.626;23.380;2022-07-29T19:10:14;4.60;;;4.20;;
39300;SDS011;25019;42.626;23.380;2022-07-29T19:12:39;4.87;;;4.33;;
39300;SDS011;25019;42.626;23.380;2022-07-29T19:15:05;5.40;;;4.90;;
39300;SDS011;25019;42.626;23.380;2022-07-29T19:17:32;4.53;;;4.00;;
39300;SDS011;25019;42.626;23.380;2022-07-29T19:19:57;4.53;;;4.13;;
39300;SDS011;25019;42.626;23.380;2022-07-29T19:22:23;6.17;;;3.87;;
39300;SDS011;25019;42.626;23.380;2022-07-29T19:24:48;4.43;;;3.90;;
39300;SDS011;25019;42.626;23.380;2022-07-29T19:27:14;4.87;;;4.47;;
39300;SDS011;25019;42.626;23.380;2022-07-29T19:29:41;5.30;;;4.53;;
39300;SDS011;25019;42.626;23.380;2022-07-29T19:32:06;6.53;;;4.23;;
39300;SDS011;25019;42.626;23.380;2022-07-29T19:34:32;4.13;;;3.80;;
39300;SDS011;25019;42.626;23.380;2022-07-29T19:36:58;5.67;;;4.13;;
39300;SDS011;25019;42.626;23.380;2022-07-29T19:39:24;4.43;;;4.10;;
39300;SDS011;25019;42.626;23.380;2022-07-29T19:41:49;4.10;;;3.53;;
39300;SDS011;25019;42.626;23.380;2022-07-29T19:44:15;5.13;;;4.20;;
39300;SDS011;25019;42.626;23.380;2022-07-29T19:46:41;4.83;;;4.10;;
39300;SDS011;25019;42.626;23.380;2022-07-29T19:49:06;4.77;;;4.17;;
39300;SDS011;25019;42.626;23.380;2022-07-29T19:51:34;5.07;;;4.53;;
39300;SDS011;25019;42.626;23.380;2022-07-29T19:53:59;4.50;;;4.10;;
39300;SDS011;25019;42.626;23.380;2022-07-29T19:56:25;5.60;;;5.10;;
39300;SDS011;25019;42.626;23.380;2022-07-29T19:58:54;4.80;;;4.30;;
39300;SDS011;25019;42.626;23.380;2022-07-29T20:01:19;5.93;;;4.33;;
39300;SDS011;25019;42.626;23.380;2022-07-29T20:03:45;4.70;;;4.30;;
39300;SDS011;25019;42.626;23.380;2022-07-29T20:06:11;12.77;;;10.47;;
39300;SDS011;25019;42.626;23.380;2022-07-29T20:08:37;5.90;;;4.50;;
39300;SDS011;25019;42.626;23.380;2022-07-29T20:11:04;5.17;;;4.30;;
39300;SDS011;25019;42.626;23.380;2022-07-29T20:13:29;8.13;;;6.50;;
39300;SDS011;25019;42.626;23.380;2022-07-29T20:15:57;5.13;;;4.63;;
39300;SDS011;25019;42.626;23.380;2022-07-29T20:18:23;5.40;;;4.10;;
39300;SDS011;25019;42.626;23.380;2022-07-29T20:20:48;6.90;;;4.17;;
39300;SDS011;25019;42.626;23.380;2022-07-29T20:23:14;5.23;;;4.23;;
39300;SDS011;25019;42.626;23.380;2022-07-29T20:25:40;5.17;;;4.03;;
39300;SDS011;25019;42.626;23.380;2022-07-29T20:28:06;5.77;;;4.57;;
39300;SDS011;25019;42.626;23.380;2022-07-29T20:30:32;7.80;;;4.80;;
39300;SDS011;25019;42.626;23.380;2022-07-29T20:32:58;5.40;;;4.80;;